Time;durP1;ratioP1;P1;durP2;ratioP2;P2;SDS_P1;SDS_P2;PMS_P1;PMS_P2;Temp;Humidity;BMP_temperature;BMP_pressure;BME280_temperature;BME280_humidity;BME280_pressure;Samples;Min_cycle;Max_cycle;Signal;HPM_P1;HPM_P2
2022/12/05 00:01:30;;;;;;;;;;;;;;;29.11;21.95;101961.75;5095929;28;1801;-31
2022/12/05 00:03:56;;;;;;;;;;;;;;;29.32;21.86;101964.81;5094732;28;909;-27
2022/12/05 00:06:22;;;;;;;;;;;;;;;28.57;22.73;101970.06;5095966;28;1898;-29
2022/12/05 00:08:47;;;;;;;;;;;;;;;28.24;23.19;101962.59;5096603;28;1130;-28
2022/12/05 00:11:13;;;;;;;;;;;;;;;28.36;22.60;101960.47;5095815;28;1163;-30
2022/12/05 00:13:39;;;;;;;;;;;;;;;28.64;22.54;101964.84;5095541;28;1166;-29
2022/12/05 00:16:12;;;;;;;;;;;;;;;29.11;21.92;101967.16;5095532;28;1063;-28
2022/12/05 00:18:37;;;;;;;;;;;;;;;29.43;21.38;101962.78;5096051;28;1135;-28
2022/12/05 00:21:03;;;;;;;;;;;;;;;29.03;22.02;101970.72;5096497;28;1190;-29
2022/12/05 00:23:28;;;;;;;;;;;;;;;28.93;22.22;101966.25;5096746;28;1115;-28
2022/12/05 00:25:53;;;;;;;;;;;;;;;29.21;22.04;101954.31;5096289;28;2008;-30
2022/12/05 00:28:19;;;;;;;;;;;;;;;29.99;21.01;101953.09;5090473;28;936;-27
2022/12/05 00:30:44;;;;;;;;;;;;;;;29.18;21.78;101958.19;5091650;28;1143;-27
2022/12/05 00:33:09;;;;;;;;;;;;;;;28.24;22.93;101967.16;5075501;28;1135;-28
2022/12/05 00:35:35;;;;;;;;;;;;;;;28.29;23.00;101962.13;5078530;28;1247;-30
2022/12/05 00:38:00;;;;;;;;;;;;;;;28.81;22.39;101963.00;5096122;28;1202;-27
2022/12/05 00:40:25;;;;;;;;;;;;;;;29.23;21.88;101951.44;5092214;28;946;-29
2022/12/05 00:42:50;;;;;;;;;;;;;;;29.38;21.89;101951.63;5095927;28;1175;-27
2022/12/05 00:45:16;;;;;;;;;;;;;;;28.76;22.49;101953.69;5095861;28;1905;-30
2022/12/05 00:47:41;;;;;;;;;;;;;;;28.64;22.88;101956.72;5096001;28;1186;-27
2022/12/05 00:50:07;;;;;;;;;;;;;;;28.93;22.65;101951.84;5096019;28;1155;-28
2022/12/05 00:52:32;;;;;;;;;;;;;;;29.41;21.85;101954.81;5094028;28;941;-29
2022/12/05 00:54:57;;;;;;;;;;;;;;;29.58;21.43;101952.94;5095851;28;1167;-27
2022/12/05 00:57:22;;;;;;;;;;;;;;;28.57;22.71;101951.09;5095530;28;1143;-31
2022/12/05 00:59:48;;;;;;;;;;;;;;;28.60;23.16;101948.06;5092841;28;1223;-27
2022/12/05 01:02:14;;;;;;;;;;;;;;;28.95;22.70;101952.53;5094500;28;1252;-30
2022/12/05 01:04:39;;;;;;;;;;;;;;;29.56;21.96;101937.88;5080013;28;1067;-28
2022/12/05 01:07:04;;;;;;;;;;;;;;;29.57;21.89;101940.41;5088810;28;1894;-29
2022/12/05 01:09:29;;;;;;;;;;;;;;;28.54;23.07;101939.75;5092346;28;1250;-28
2022/12/05 01:11:55;;;;;;;;;;;;;;;28.59;23.36;101938.22;5088310;28;1369;-29
2022/12/05 01:14:20;;;;;;;;;;;;;;;28.96;22.68;101946.13;5088360;28;1270;-26
2022/12/05 01:16:46;;;;;;;;;;;;;;;29.62;21.90;101949.91;5094388;28;942;-29
2022/12/05 01:19:18;;;;;;;;;;;;;;;29.43;21.99;101938.38;5095655;28;1163;-27
2022/12/05 01:21:44;;;;;;;;;;;;;;;28.47;23.41;101936.84;5095574;28;1147;-28
2022/12/05 01:24:09;;;;;;;;;;;;;;;28.57;23.50;101936.72;5095698;28;1163;-33
2022/12/05 01:26:35;;;;;;;;;;;;;;;28.95;22.73;101939.00;5095748;28;1972;-28
2022/12/05 01:29:00;;;;;;;;;;;;;;;29.42;22.25;101936.69;5088684;28;921;-28
2022/12/05 01:31:26;;;;;;;;;;;;;;;29.26;22.39;101934.84;5095842;28;1163;-30
2022/12/05 01:33:53;;;;;;;;;;;;;;;28.57;23.29;101936.72;5095493;28;1155;-28
2022/12/05 01:36:18;;;;;;;;;;;;;;;28.67;22.99;101923.88;5095553;28;1178;-29
2022/12/05 01:38:43;;;;;;;;;;;;;;;29.07;22.71;101921.44;5095391;28;1127;-31
2022/12/05 01:41:11;;;;;;;;;;;;;;;29.64;21.90;101916.22;5094140;28;1270;-29
2022/12/05 01:43:54;;;;;;;;;;;;;;;29.20;22.41;101910.09;5099458;28;1167;-29
2022/12/05 01:46:20;;;;;;;;;;;;;;;28.66;23.18;101902.41;5098626;28;1959;-28
2022/12/05 01:48:45;;;;;;;;;;;;;;;28.88;22.98;101927.16;5099125;28;1163;-29
2022/12/05 01:51:10;;;;;;;;;;;;;;;29.24;22.22;101905.19;5095536;28;1239;-28
2022/12/05 01:53:36;;;;;;;;;;;;;;;29.63;21.97;101910.97;5098777;28;1100;-27
2022/12/05 01:56:01;;;;;;;;;;;;;;;28.69;22.87;101904.78;5098979;28;1132;-32
2022/12/05 01:58:27;;;;;;;;;;;;;;;28.65;23.12;101906.94;5098958;28;1075;-28
2022/12/05 02:00:52;;;;;;;;;;;;;;;28.96;22.93;101897.38;5060896;28;1155;-26
2022/12/05 02:03:18;;;;;;;;;;;;;;;29.46;22.21;101889.28;5092097;28;1152;-30
2022/12/05 02:05:43;;;;;;;;;;;;;;;29.62;21.99;101892.97;5080464;28;1910;-28
2022/12/05 02:08:09;;;;;;;;;;;;;;;28.68;23.22;101884.97;5080388;28;1355;-28
2022/12/05 02:10:38;;;;;;;;;;;;;;;28.55;23.16;101866.50;5098602;28;1139;-28
2022/12/05 02:13:07;;;;;;;;;;;;;;;29.08;22.70;101882.50;5079958;28;1334;-30
2022/12/05 02:15:32;;;;;;;;;;;;;;;29.58;21.96;101885.16;5062332;28;1223;-28
2022/12/05 02:18:11;;;;;;;;;;;;;;;29.06;22.48;101879.09;5073377;28;1147;-29
2022/12/05 02:20:39;;;;;;;;;;;;;;;28.57;23.35;101885.28;5066561;28;1191;-27
2022/12/05 02:23:13;;;;;;;;;;;;;;;28.75;23.08;101885.16;5091357;28;1187;-27
2022/12/05 02:25:56;;;;;;;;;;;;;;;29.20;22.20;101883.00;5080232;28;1902;-27
2022/12/05 02:28:22;;;;;;;;;;;;;;;29.79;21.74;101883.81;5087455;28;1421;-28
2022/12/05 02:30:49;;;;;;;;;;;;;;;28.82;22.98;101878.06;5098107;28;1154;-28
2022/12/05 02:33:18;;;;;;;;;;;;;;;28.62;23.26;101891.03;5097950;28;1115;-28
2022/12/05 02:35:44;;;;;;;;;;;;;;;28.91;22.85;101892.44;5074972;28;1226;-30
2022/12/05 02:38:12;;;;;;;;;;;;;;;29.45;22.07;101901.09;5077915;28;1146;-27
2022/12/05 02:40:37;;;;;;;;;;;;;;;29.61;21.73;101900.28;5089894;28;1214;-29
2022/12/05 02:43:04;;;;;;;;;;;;;;;28.57;23.16;101899.66;5098523;28;1139;-28
2022/12/05 02:45:30;;;;;;;;;;;;;;;28.69;23.15;101907.47;5079547;28;1965;-29
2022/12/05 02:47:55;;;;;;;;;;;;;;;29.08;22.55;101906.88;5079691;28;1140;-29
2022/12/05 02:50:21;;;;;;;;;;;;;;;29.58;21.95;101919.56;5097951;28;1171;-29
2022/12/05 02:52:47;;;;;;;;;;;;;;;29.29;22.38;101915.53;5072659;28;1131;-28
2022/12/05 02:55:13;;;;;;;;;;;;;;;28.64;23.03;101921.50;5097976;28;1155;-29
2022/12/05 02:57:38;;;;;;;;;;;;;;;28.71;23.37;101919.81;5097540;28;1099;-30
2022/12/05 03:00:05;;;;;;;;;;;;;;;29.06;22.81;101925.16;5079674;28;1218;-27
2022/12/05 03:02:31;;;;;;;;;;;;;;;29.74;22.02;101929.59;5098244;28;1175;-28
2022/12/05 03:04:57;;;;;;;;;;;;;;;29.19;22.49;101921.13;5073746;28;892;-28
2022/12/05 03:07:22;;;;;;;;;;;;;;;28.53;23.46;101916.41;5078798;28;1959;-29
2022/12/05 03:09:49;;;;;;;;;;;;;;;28.76;23.17;101921.19;5097442;28;1198;-27
2022/12/05 03:12:35;;;;;;;;;;;;;;;29.11;22.50;101907.56;5079521;28;1167;-29
2022/12/05 03:15:05;;;;;;;;;;;;;;;29.75;21.98;101925.84;5097543;28;1251;-29
2022/12/05 03:17:39;;;;;;;;;;;;;;;28.60;23.41;101928.25;5088576;28;925;-28
2022/12/05 03:20:23;;;;;;;;;;;;;;;28.45;23.62;101926.19;5079528;28;1131;-29
2022/12/05 03:22:51;;;;;;;;;;;;;;;28.84;23.06;101923.94;5097428;28;1179;-27
2022/12/05 03:25:16;;;;;;;;;;;;;;;29.41;22.14;101916.84;5079330;28;1909;-30
2022/12/05 03:27:48;;;;;;;;;;;;;;;29.52;22.05;101918.41;5077390;28;1155;-29
2022/12/05 03:30:14;;;;;;;;;;;;;;;28.42;23.31;101915.69;5092944;28;1135;-31
2022/12/05 03:32:40;;;;;;;;;;;;;;;28.43;23.16;101905.69;5096816;28;1190;-27
2022/12/05 03:35:11;;;;;;;;;;;;;;;28.71;22.87;101909.00;5097214;28;1183;-29
2022/12/05 03:37:53;;;;;;;;;;;;;;;29.02;22.29;101909.41;5096846;28;1123;-30
2022/12/05 03:40:31;;;;;;;;;;;;;;;29.20;22.00;101906.53;5073676;28;1167;-28
2022/12/05 03:43:17;;;;;;;;;;;;;;;28.68;22.39;101905.75;5079123;28;1136;-29
2022/12/05 03:45:46;;;;;;;;;;;;;;;28.43;22.86;101897.56;5096259;28;1969;-27
2022/12/05 03:48:18;;;;;;;;;;;;;;;28.68;22.73;101897.63;5078746;28;1100;-27
2022/12/05 03:50:43;;;;;;;;;;;;;;;28.93;22.35;101903.09;5078745;28;1214;-31
2022/12/05 03:53:10;;;;;;;;;;;;;;;29.06;22.22;101908.06;5074988;28;1115;-30
2022/12/05 03:55:35;;;;;;;;;;;;;;;29.11;22.07;101919.25;5096691;28;1131;-30
2022/12/05 03:58:01;;;;;;;;;;;;;;;28.92;22.34;101914.97;5078847;28;1155;-28
2022/12/05 04:00:27;;;;;;;;;;;;;;;28.69;22.44;101911.03;5078714;28;1159;-28
2022/12/05 04:02:54;;;;;;;;;;;;;;;28.49;22.83;101910.47;5077442;28;1239;-30
2022/12/05 04:05:22;;;;;;;;;;;;;;;28.60;22.67;101910.16;5077262;28;1961;-27
2022/12/05 04:07:48;;;;;;;;;;;;;;;28.68;22.62;101911.19;5092223;28;1162;-27
2022/12/05 04:10:15;;;;;;;;;;;;;;;28.95;22.46;101914.63;5078006;28;1210;-27
2022/12/05 04:12:40;;;;;;;;;;;;;;;29.14;22.17;101915.34;5096906;28;1170;-29
2022/12/05 04:15:13;;;;;;;;;;;;;;;28.92;22.33;101918.53;5078521;28;1227;-30
2022/12/05 04:17:51;;;;;;;;;;;;;;;28.67;22.82;101928.44;5092618;28;929;-31
2022/12/05 04:23:10;;;;;;;;;;;;;;;28.73;22.50;101933.19;5084784;28;1093;-30
2022/12/05 04:25:36;;;;;;;;;;;;;;;28.92;22.39;101940.19;5078078;28;1902;-27
2022/12/05 04:28:13;;;;;;;;;;;;;;;28.98;22.60;101929.75;5071909;28;1139;-30
2022/12/05 04:30:40;;;;;;;;;;;;;;;29.14;22.09;101937.03;5095497;28;1177;-27
2022/12/05 04:33:07;;;;;;;;;;;;;;;28.66;22.63;101938.41;5069884;28;1178;-27
2022/12/05 04:35:48;;;;;;;;;;;;;;;28.47;22.74;101934.13;5076182;28;1099;-27
2022/12/05 04:38:20;;;;;;;;;;;;;;;28.43;23.05;101940.88;5076224;28;1167;-26
2022/12/05 04:40:48;;;;;;;;;;;;;;;28.75;22.57;101946.56;5068232;28;1140;-28
2022/12/05 04:43:13;;;;;;;;;;;;;;;28.87;22.54;101947.97;5096470;28;1241;-26
2022/12/05 04:45:38;;;;;;;;;;;;;;;28.89;22.68;101947.78;5096237;28;1893;-27
2022/12/05 04:48:06;;;;;;;;;;;;;;;28.05;22.51;101947.44;5077720;28;1211;-24
2022/12/05 04:50:32;;;;;;;;;;;;;;;26.44;21.07;101939.03;5094490;28;1239;-26
2022/12/05 04:52:57;;;;;;;;;;;;;;;25.98;22.22;101947.81;5069227;28;1421;-28
2022/12/05 04:55:24;;;;;;;;;;;;;;;26.96;21.96;101940.28;5060822;28;1313;-26
2022/12/05 04:58:13;;;;;;;;;;;;;;;27.34;20.91;101950.13;5081573;28;1104;-22
2022/12/05 05:00:56;;;;;;;;;;;;;;;26.51;21.83;101942.81;5084200;28;1443;-23
2022/12/05 05:03:31;;;;;;;;;;;;;;;26.71;22.52;101948.09;5096048;28;1206;-31
2022/12/05 05:05:56;;;;;;;;;;;;;;;27.28;21.74;101948.03;5095121;28;1893;-24
2022/12/05 05:08:23;;;;;;;;;;;;;;;27.81;21.40;101948.16;5095574;28;1118;-22
2022/12/05 05:11:07;;;;;;;;;;;;;;;28.02;21.44;101953.19;5095474;28;1131;-23
2022/12/05 05:13:32;;;;;;;;;;;;;;;27.02;20.92;101955.06;5095836;28;1083;-21
2022/12/05 05:15:58;;;;;;;;;;;;;;;25.74;21.99;101956.38;5098774;28;1183;-21
2022/12/05 05:18:23;;;;;;;;;;;;;;;25.06;22.68;101954.38;5099599;28;1071;-21
2022/12/05 05:20:48;;;;;;;;;;;;;;;24.70;24.18;101949.47;5099865;28;1191;-23
2022/12/05 05:23:14;;;;;;;;;;;;;;;26.14;23.45;101957.16;5073880;28;1143;-23
2022/12/05 05:25:39;;;;;;;;;;;;;;;26.51;23.68;101950.91;5099028;28;1906;-28
2022/12/05 05:28:04;;;;;;;;;;;;;;;27.16;22.98;101952.81;5098981;28;1100;-24
2022/12/05 05:30:29;;;;;;;;;;;;;;;26.56;23.93;101953.16;5098817;28;1198;-25
2022/12/05 05:32:55;;;;;;;;;;;;;;;25.92;24.79;101954.63;5098426;28;1142;-24
2022/12/05 05:35:20;;;;;;;;;;;;;;;26.16;24.51;101961.38;5088765;28;2384;-26
2022/12/05 05:37:45;;;;;;;;;;;;;;;26.63;24.14;101956.09;5098764;28;1123;-23
2022/12/05 05:40:11;;;;;;;;;;;;;;;27.32;23.33;101946.72;5098856;28;1104;-23
2022/12/05 05:42:40;;;;;;;;;;;;;;;26.90;23.25;101957.94;5098540;28;1171;-24
2022/12/05 05:45:06;;;;;;;;;;;;;;;26.02;25.06;101957.31;5098602;28;1146;-30
2022/12/05 05:47:31;;;;;;;;;;;;;;;25.91;25.15;101954.78;5098597;28;1902;-27
2022/12/05 05:49:56;;;;;;;;;;;;;;;26.15;24.31;101958.84;5098453;28;1115;-25
2022/12/05 05:52:22;;;;;;;;;;;;;;;26.53;23.71;101958.84;5098811;28;1139;-23
2022/12/05 05:54:47;;;;;;;;;;;;;;;26.88;22.59;101953.69;5098715;28;941;-23
2022/12/05 05:57:12;;;;;;;;;;;;;;;27.02;22.39;101961.31;5098596;28;1063;-21
2022/12/05 05:59:38;;;;;;;;;;;;;;;27.50;22.28;101952.97;5098464;28;1099;-22
2022/12/05 06:02:03;;;;;;;;;;;;;;;27.70;22.69;101949.25;5098320;28;1135;-23
2022/12/05 06:04:28;;;;;;;;;;;;;;;27.59;23.11;101958.44;5098152;28;2380;-22
2022/12/05 06:06:54;;;;;;;;;;;;;;;27.55;23.24;101959.75;5088212;28;1963;-23
2022/12/05 06:09:19;;;;;;;;;;;;;;;27.43;23.44;101953.72;5089471;28;1178;-26
2022/12/05 06:11:44;;;;;;;;;;;;;;;27.27;23.87;101966.09;5098446;28;1209;-23
2022/12/05 06:14:09;;;;;;;;;;;;;;;27.12;24.16;101963.94;5098331;28;1151;-26
2022/12/05 06:16:35;;;;;;;;;;;;;;;27.23;24.00;101959.28;5097702;28;1190;-25
2022/12/05 06:19:00;;;;;;;;;;;;;;;27.39;24.07;101969.41;5093760;28;971;-28
2022/12/05 06:21:25;;;;;;;;;;;;;;;27.87;23.63;101969.13;5090432;28;961;-28
2022/12/05 06:23:52;;;;;;;;;;;;;;;28.06;23.32;101962.66;5097541;28;1134;-25
2022/12/05 06:26:18;;;;;;;;;;;;;;;28.35;22.89;101964.22;5097528;28;1972;-29
2022/12/05 06:28:43;;;;;;;;;;;;;;;28.54;22.83;101967.69;5097924;28;1107;-28
2022/12/05 06:31:12;;;;;;;;;;;;;;;28.95;22.33;101968.78;5097304;28;1131;-27
2022/12/05 06:33:37;;;;;;;;;;;;;;;29.04;22.27;101964.28;5097829;28;1166;-26
2022/12/05 06:36:29;;;;;;;;;;;;;;;28.50;22.45;101971.69;5097501;28;2592;-27
2022/12/05 06:38:57;;;;;;;;;;;;;;;28.05;23.44;101970.94;5093285;28;1475;-27
2022/12/05 06:41:23;;;;;;;;;;;;;;;28.23;23.36;101970.84;5094699;28;1131;-29
2022/12/05 06:43:51;;;;;;;;;;;;;;;28.30;23.32;101971.06;5092892;28;1143;-28
2022/12/05 06:46:16;;;;;;;;;;;;;;;28.13;23.63;101972.84;5097354;28;1959;-27
2022/12/05 06:48:41;;;;;;;;;;;;;;;28.08;24.13;101971.47;5097483;28;1162;-28
2022/12/05 06:51:10;;;;;;;;;;;;;;;27.99;24.27;101988.66;5097404;28;1178;-26
2022/12/05 06:53:35;;;;;;;;;;;;;;;28.41;23.97;101981.63;5097150;28;1123;-28
2022/12/05 06:56:01;;;;;;;;;;;;;;;28.55;23.80;101984.75;5097108;28;1123;-26
2022/12/05 06:58:26;;;;;;;;;;;;;;;28.78;23.48;101982.28;5097316;28;1201;-28
2022/12/05 07:03:36;;;;;;;;;;;;;;;28.70;23.26;101998.50;5097057;28;1115;-29
2022/12/05 07:06:02;;;;;;;;;;;;;;;28.28;24.00;101995.59;5092720;28;2121;-26
2022/12/05 07:08:27;;;;;;;;;;;;;;;28.40;23.73;101992.63;5097336;28;1144;-28
2022/12/05 07:10:52;;;;;;;;;;;;;;;28.78;23.52;102001.25;5097211;28;1174;-28
2022/12/05 07:13:18;;;;;;;;;;;;;;;28.97;22.86;101993.88;5096952;28;1127;-29
2022/12/05 07:15:45;;;;;;;;;;;;;;;28.64;23.05;101991.03;5096665;28;1172;-29
2022/12/05 07:18:10;;;;;;;;;;;;;;;28.21;23.96;102000.78;5096625;28;900;-29
2022/12/05 07:20:35;;;;;;;;;;;;;;;28.33;24.13;101981.59;5097017;28;1127;-31
2022/12/05 07:23:01;;;;;;;;;;;;;;;28.39;23.78;101999.91;5091452;28;1233;-29
2022/12/05 07:25:26;;;;;;;;;;;;;;;28.62;23.64;101990.34;5096140;28;1910;-30
2022/12/05 07:27:51;;;;;;;;;;;;;;;28.91;23.25;101989.94;5088973;28;1139;-32
2022/12/05 07:30:16;;;;;;;;;;;;;;;29.16;23.10;101990.03;5088710;28;1083;-27
2022/12/05 07:32:42;;;;;;;;;;;;;;;28.96;22.83;101995.72;5092093;28;1142;-28
2022/12/05 07:35:07;;;;;;;;;;;;;;;28.66;23.48;101992.56;5096065;28;2108;-27
2022/12/05 07:37:32;;;;;;;;;;;;;;;28.42;23.86;101983.34;5095283;28;1111;-27
2022/12/05 07:39:58;;;;;;;;;;;;;;;28.76;23.48;101997.03;5096508;28;1155;-29
2022/12/05 07:42:23;;;;;;;;;;;;;;;28.70;23.37;101995.81;5095394;28;1080;-27
2022/12/05 07:44:48;;;;;;;;;;;;;;;28.81;23.12;101991.97;5077708;28;1206;-29
2022/12/05 07:47:14;;;;;;;;;;;;;;;28.55;23.49;101995.56;5095705;28;1964;-28
2022/12/05 07:49:39;;;;;;;;;;;;;;;28.24;24.15;102003.16;5085211;28;1203;-28
2022/12/05 07:52:04;;;;;;;;;;;;;;;28.30;24.36;102006.25;5081816;28;1423;-28
2022/12/05 07:54:30;;;;;;;;;;;;;;;28.52;24.19;101995.91;5087250;28;1143;-29
2022/12/05 07:56:55;;;;;;;;;;;;;;;28.76;23.76;102002.44;5095145;28;1207;-30
2022/12/05 07:59:20;;;;;;;;;;;;;;;28.73;23.55;102007.16;5095501;28;1143;-27
2022/12/05 08:01:45;;;;;;;;;;;;;;;28.83;23.79;102011.56;5095770;28;1147;-30
2022/12/05 08:04:11;;;;;;;;;;;;;;;28.69;23.66;102013.06;5095375;28;1951;-30
2022/12/05 08:06:36;;;;;;;;;;;;;;;28.54;24.01;102015.53;5093720;28;1913;-31
2022/12/05 08:09:02;;;;;;;;;;;;;;;28.54;23.86;102020.97;5095307;28;1067;-30
2022/12/05 08:11:28;;;;;;;;;;;;;;;28.87;23.59;102010.25;5096343;28;1100;-29
2022/12/05 08:13:55;;;;;;;;;;;;;;;28.81;23.56;102002.78;5096144;28;1139;-26
2022/12/05 08:16:21;;;;;;;;;;;;;;;28.91;23.80;102000.78;5096019;28;1075;-28
2022/12/05 08:18:46;;;;;;;;;;;;;;;28.89;23.75;102012.78;5094975;28;899;-30
2022/12/05 08:21:12;;;;;;;;;;;;;;;28.67;23.45;101999.69;5095918;28;1048;-31
2022/12/05 08:23:38;;;;;;;;;;;;;;;28.74;24.08;102002.59;5095563;28;1178;-29
2022/12/05 08:26:04;;;;;;;;;;;;;;;28.57;24.11;102002.53;5096011;28;1975;-32
2022/12/05 08:28:29;;;;;;;;;;;;;;;28.84;24.02;101997.88;5095873;28;1088;-31
2022/12/05 08:30:54;;;;;;;;;;;;;;;28.93;23.53;101998.75;5093732;28;918;-27
2022/12/05 08:33:20;;;;;;;;;;;;;;;28.96;23.16;101995.72;5095587;28;1130;-29
2022/12/05 08:35:45;;;;;;;;;;;;;;;28.98;23.17;102003.69;5095770;28;1895;-28
2022/12/05 08:38:10;;;;;;;;;;;;;;;28.65;23.66;101987.31;5095320;28;1107;-28
2022/12/05 08:40:35;;;;;;;;;;;;;;;28.66;23.37;101992.56;5096196;28;1222;-28
2022/12/05 08:43:01;;;;;;;;;;;;;;;28.46;24.02;101995.53;5086240;28;1131;-28
2022/12/05 08:45:26;;;;;;;;;;;;;;;28.92;23.28;101988.94;5075376;28;1959;-30
2022/12/05 08:47:51;;;;;;;;;;;;;;;29.11;22.99;101987.00;5079326;28;1072;-27
2022/12/05 08:50:17;;;;;;;;;;;;;;;29.14;23.03;101988.50;5099408;28;1258;-28
2022/12/05 08:52:42;;;;;;;;;;;;;;;29.05;23.22;101982.22;5100105;28;1158;-29
2022/12/05 08:55:07;;;;;;;;;;;;;;;28.75;23.37;101979.91;5090974;28;1048;-29
2022/12/05 08:57:33;;;;;;;;;;;;;;;28.65;23.97;101982.75;5098990;28;1158;-30
2022/12/05 08:59:58;;;;;;;;;;;;;;;28.86;23.55;101976.06;5099643;28;1087;-30
2022/12/05 09:02:23;;;;;;;;;;;;;;;28.46;23.84;101976.59;5095686;28;1088;-27
2022/12/05 09:04:49;;;;;;;;;;;;;;;28.19;24.44;101983.03;5088008;28;1954;-27
2022/12/05 09:07:15;;;;;;;;;;;;;;;28.11;24.69;101990.06;5090549;28;1894;-27
2022/12/05 09:09:40;;;;;;;;;;;;;;;28.19;24.55;101977.63;5093345;28;1131;-29
2022/12/05 09:12:05;;;;;;;;;;;;;;;28.28;24.43;101976.63;5099250;28;1092;-28
2022/12/05 09:14:31;;;;;;;;;;;;;;;28.68;24.21;101984.28;5098331;28;1267;-30
2022/12/05 09:16:57;;;;;;;;;;;;;;;28.87;23.75;101974.19;5099404;28;1206;-28
2022/12/05 09:19:24;;;;;;;;;;;;;;;28.61;23.81;101981.41;5096787;28;841;-30
2022/12/05 09:21:49;;;;;;;;;;;;;;;28.84;23.40;101981.63;5099518;28;1163;-27
2022/12/05 09:24:15;;;;;;;;;;;;;;;28.55;23.99;101995.56;5099407;28;1127;-29
2022/12/05 09:26:40;;;;;;;;;;;;;;;28.69;23.92;101980.59;5098881;28;1901;-30
2022/12/05 09:29:05;;;;;;;;;;;;;;;28.53;23.94;101981.38;5099172;28;1155;-28
2022/12/05 09:31:31;;;;;;;;;;;;;;;28.30;24.46;101984.59;5098544;28;869;-29
2022/12/05 09:33:56;;;;;;;;;;;;;;;28.42;24.38;101983.34;5099644;28;1190;-31
2022/12/05 09:36:25;;;;;;;;;;;;;;;28.52;24.18;101982.38;5078397;28;1029;-28
2022/12/05 09:38:51;;;;;;;;;;;;;;;28.87;24.02;101971.47;5079120;28;1140;-27
2022/12/05 09:41:16;;;;;;;;;;;;;;;29.13;23.54;101978.69;5078353;28;1108;-27
2022/12/05 09:43:49;;;;;;;;;;;;;;;29.17;23.51;101978.19;5081287;28;1132;-27
2022/12/05 09:46:19;;;;;;;;;;;;;;;28.83;23.50;101969.09;5078652;28;1953;-29
2022/12/05 09:48:45;;;;;;;;;;;;;;;28.67;24.04;101961.78;5099209;28;1088;-30
2022/12/05 09:51:10;;;;;;;;;;;;;;;28.62;24.04;101974.09;5098859;28;1100;-29
2022/12/05 09:53:39;;;;;;;;;;;;;;;28.49;23.88;101972.72;5098832;28;1048;-30
2022/12/05 09:56:04;;;;;;;;;;;;;;;28.21;24.43;101967.50;5079911;28;880;-28
2022/12/05 09:58:39;;;;;;;;;;;;;;;28.38;24.31;101973.84;5098194;28;1790;-28
2022/12/05 10:01:19;;;;;;;;;;;;;;;28.56;24.15;101959.38;5097152;28;1170;-27
2022/12/05 10:03:46;;;;;;;;;;;;;;;28.82;23.81;101969.28;5097740;28;1249;-29
2022/12/05 10:06:17;;;;;;;;;;;;;;;28.98;23.60;101965.78;5079339;28;1947;-31
2022/12/05 10:08:42;;;;;;;;;;;;;;;29.00;23.57;101962.91;5079807;28;1112;-28
2022/12/05 10:11:11;;;;;;;;;;;;;;;28.66;23.39;101964.66;5097455;28;1246;-29
2022/12/05 10:13:39;;;;;;;;;;;;;;;28.71;23.91;101957.72;5097601;28;1068;-27
2022/12/05 10:16:09;;;;;;;;;;;;;;;28.66;23.98;101951.94;5080126;28;1288;-28
2022/12/05 10:18:37;;;;;;;;;;;;;;;28.54;23.79;101956.00;5080088;28;1099;-30
2022/12/05 10:21:03;;;;;;;;;;;;;;;28.22;23.97;101956.50;5094452;28;1234;-31
2022/12/05 10:23:30;;;;;;;;;;;;;;;28.18;24.62;101943.44;5078815;28;1116;-29
2022/12/05 10:25:56;;;;;;;;;;;;;;;28.40;24.38;101942.06;5078611;28;1914;-31
2022/12/05 10:28:48;;;;;;;;;;;;;;;28.71;23.74;101936.06;5079584;28;1246;-29
2022/12/05 10:31:14;;;;;;;;;;;;;;;28.81;23.77;101937.81;5093029;28;1578;-30
2022/12/05 10:33:40;;;;;;;;;;;;;;;28.86;23.67;101935.44;5065511;28;1104;-31
2022/12/05 10:36:10;;;;;;;;;;;;;;;28.66;23.55;101937.59;5079368;28;2495;-29
2022/12/05 10:38:35;;;;;;;;;;;;;;;28.85;23.44;101939.16;5097241;28;1099;-30
2022/12/05 10:41:03;;;;;;;;;;;;;;;28.42;24.01;101940.03;5079726;28;1224;-32
2022/12/05 10:43:29;;;;;;;;;;;;;;;28.83;23.48;101933.03;5094554;28;1107;-32
2022/12/05 10:45:54;;;;;;;;;;;;;;;28.90;23.67;101931.38;5068151;28;1874;-29
2022/12/05 10:48:20;;;;;;;;;;;;;;;28.69;23.74;101932.69;5079819;28;1088;-29
2022/12/05 10:50:47;;;;;;;;;;;;;;;28.32;23.88;101929.31;5097579;28;1143;-31
2022/12/05 10:53:23;;;;;;;;;;;;;;;28.21;24.53;101933.16;5097460;28;1119;-29
2022/12/05 10:55:50;;;;;;;;;;;;;;;28.59;23.98;101921.16;5079171;28;869;-29
2022/12/05 10:58:16;;;;;;;;;;;;;;;28.81;23.72;101924.25;5097295;28;1189;-29
2022/12/05 11:00:45;;;;;;;;;;;;;;;28.94;23.43;101916.50;5097527;28;1064;-28
2022/12/05 11:03:20;;;;;;;;;;;;;;;28.89;23.56;101929.69;5079708;28;1159;-28
2022/12/05 11:05:47;;;;;;;;;;;;;;;28.57;23.85;101912.34;5097066;28;1957;-33
2022/12/05 11:08:16;;;;;;;;;;;;;;;28.50;24.08;101916.72;5078751;28;1227;-28
2022/12/05 11:10:43;;;;;;;;;;;;;;;28.54;23.86;101918.94;5079128;28;1392;-29
2022/12/05 11:13:23;;;;;;;;;;;;;;;28.81;23.75;101916.13;5096508;28;1139;-27
2022/12/05 11:15:48;;;;;;;;;;;;;;;28.57;23.80;101913.19;5078953;28;1148;-31
2022/12/05 11:18:18;;;;;;;;;;;;;;;28.39;23.87;101915.16;5096934;28;1166;-27
2022/12/05 11:20:43;;;;;;;;;;;;;;;28.26;24.52;101907.47;5096396;28;828;-26
2022/12/05 11:23:34;;;;;;;;;;;;;;;28.70;23.70;101901.03;5078423;28;1139;-29
2022/12/05 11:26:00;;;;;;;;;;;;;;;28.87;23.40;101899.22;5092905;28;1898;-27
2022/12/05 11:28:29;;;;;;;;;;;;;;;28.90;23.58;101896.16;5078390;28;1096;-26
2022/12/05 11:30:58;;;;;;;;;;;;;;;28.93;23.59;101898.53;5096988;28;1075;-28
2022/12/05 11:33:23;;;;;;;;;;;;;;;28.56;23.62;101895.25;5081910;28;911;-29
2022/12/05 11:35:49;;;;;;;;;;;;;;;28.56;23.93;101891.72;5096570;28;2503;-28
2022/12/05 11:38:15;;;;;;;;;;;;;;;28.62;23.86;101888.34;5078363;28;1112;-28
2022/12/05 11:40:59;;;;;;;;;;;;;;;28.57;24.14;101887.97;5078306;28;1368;-28
2022/12/05 11:43:43;;;;;;;;;;;;;;;28.76;23.15;101886.81;5096735;28;1084;-28
2022/12/05 11:46:17;;;;;;;;;;;;;;;28.36;24.03;101871.19;5096440;28;1906;-28
2022/12/05 11:48:42;;;;;;;;;;;;;;;28.44;23.78;101873.09;5096142;28;1214;-29
2022/12/05 11:51:26;;;;;;;;;;;;;;;28.72;23.54;101869.22;5096447;28;1186;-27
2022/12/05 11:53:54;;;;;;;;;;;;;;;28.86;23.61;101873.16;5096306;28;1123;-30
2022/12/05 11:56:24;;;;;;;;;;;;;;;29.04;23.43;101864.91;5096222;28;1020;-29
2022/12/05 11:59:00;;;;;;;;;;;;;;;29.00;23.30;101868.94;5078057;28;1143;-33
2022/12/05 12:01:43;;;;;;;;;;;;;;;28.62;23.78;101865.81;5077977;28;1147;-28
2022/12/05 12:04:16;;;;;;;;;;;;;;;28.56;24.00;101868.19;5096149;28;1861;-27
2022/12/05 12:07:00;;;;;;;;;;;;;;;28.63;24.05;101862.94;5078376;28;1966;-29
2022/12/05 12:09:32;;;;;;;;;;;;;;;29.01;23.53;101861.69;5083289;28;905;-28
2022/12/05 12:11:59;;;;;;;;;;;;;;;28.68;23.65;101863.31;5095308;28;1219;-27
2022/12/05 12:14:27;;;;;;;;;;;;;;;28.28;24.34;101859.47;5077557;28;1163;-27
2022/12/05 12:16:58;;;;;;;;;;;;;;;28.48;24.07;101855.47;5077840;28;1191;-28
2022/12/05 12:19:33;;;;;;;;;;;;;;;28.73;23.31;101858.22;5095634;28;1155;-27
2022/12/05 12:22:01;;;;;;;;;;;;;;;28.80;23.33;101849.44;5095812;28;931;-29
2022/12/05 12:24:42;;;;;;;;;;;;;;;28.96;23.59;101852.16;5095488;28;1115;-29
2022/12/05 12:27:15;;;;;;;;;;;;;;;28.88;25.46;101851.31;5078235;28;1969;-27
2022/12/05 12:29:56;;;;;;;;;;;;;;;28.10;24.01;101846.88;5077910;28;1132;-31
2022/12/05 12:32:40;;;;;;;;;;;;;;;28.21;24.73;101845.75;5095271;28;1155;-26
2022/12/05 12:35:17;;;;;;;;;;;;;;;28.21;24.08;101843.88;5095761;28;1847;-27
2022/12/05 12:37:46;;;;;;;;;;;;;;;27.87;23.69;101851.03;5082688;28;1104;-25
2022/12/05 12:40:11;;;;;;;;;;;;;;;27.33;24.41;101849.28;5095697;28;1103;-27
2022/12/05 12:42:56;;;;;;;;;;;;;;;27.65;24.05;101841.56;5095767;28;1167;-26
2022/12/05 12:45:31;;;;;;;;;;;;;;;27.87;23.43;101834.78;5077189;28;1183;-26
2022/12/05 12:48:03;;;;;;;;;;;;;;;28.06;22.97;101835.53;5095371;28;1967;-27
2022/12/05 12:50:32;;;;;;;;;;;;;;;28.05;22.74;101831.13;5077387;28;1115;-29
2022/12/05 12:53:15;;;;;;;;;;;;;;;28.47;22.16;101826.72;5095676;28;1119;-27
2022/12/05 12:55:41;;;;;;;;;;;;;;;28.16;22.71;101829.16;5095436;28;1075;-30
2022/12/05 12:58:12;;;;;;;;;;;;;;;28.03;22.91;101833.16;5084060;28;930;-29